Time;durP1;ratioP1;P1;durP2;ratioP2;P2;SDS_P1;SDS_P2;PMS_P1;PMS_P2;Temp;Humidity;BMP_temperature;BMP_pressure;BME280_temperature;BME280_humidity;BME280_pressure;Samples;Min_cycle;Max_cycle;Signal;HPM_P1;HPM_P2
2023/11/02 00:01:07;;;;;;;7.95;4.72;;;11.20;99.90;;;11.33;100.00;98759.53;4823657;29;20058;-66
2023/11/02 00:03:40;;;;;;;16.35;5.18;;;11.20;99.90;;;11.28;100.00;98756.22;4807482;29;20062;-66
2023/11/02 00:06:36;;;;;;;11.40;4.40;;;11.20;99.90;;;11.31;100.00;98742.84;4823617;29;20078;-66
2023/11/02 00:09:34;;;;;;;9.05;4.55;;;11.20;99.90;;;11.28;100.00;98729.75;4824017;29;20516;-66
2023/11/02 00:12:05;;;;;;;10.75;4.93;;;11.20;99.90;;;11.38;100.00;98741.66;4823410;29;20397;-66
2023/11/02 00:14:44;;;;;;;11.07;4.82;;;11.20;99.90;;;11.46;100.00;98747.50;4807329;29;20099;-66
2023/11/02 00:17:58;;;;;;;9.75;4.47;;;11.30;99.90;;;11.28;100.00;98697.13;4823828;29;20133;-65
2023/11/02 00:20:36;;;;;;;10.25;4.82;;;11.30;99.90;;;11.40;100.00;98693.97;4812442;29;20062;-66
2023/11/02 00:23:08;;;;;;;13.13;4.85;;;11.30;99.90;;;11.39;100.00;98695.75;4823486;29;20061;-66
2023/11/02 00:25:52;;;;;;;13.35;4.32;;;11.30;99.90;;;11.48;100.00;98683.88;4823421;29;20058;-66
2023/11/02 00:28:20;;;;;;;14.07;4.80;;;11.40;99.90;;;11.40;100.00;98671.00;4816546;29;20054;-66
2023/11/02 00:30:50;;;;;;;12.68;4.53;;;11.30;99.90;;;11.44;100.00;98650.56;4807292;29;20061;-66
2023/11/02 00:33:21;;;;;;;11.82;4.57;;;11.30;99.90;;;11.43;100.00;98639.13;4808835;29;20484;-65
2023/11/02 00:35:52;;;;;;;10.93;4.88;;;11.30;99.90;;;11.33;100.00;98624.56;4826844;29;20103;-65
2023/11/02 00:38:26;;;;;;;14.65;4.55;;;11.30;99.90;;;11.47;100.00;98622.16;4826822;29;20133;-65
2023/11/02 00:40:57;;;;;;;11.23;4.30;;;11.30;99.90;;;11.43;100.00;98627.66;4810478;29;20054;-65
2023/11/02 00:43:26;;;;;;;13.65;4.75;;;11.40;99.90;;;11.51;100.00;98610.53;4826565;29;20065;-65
2023/11/02 00:45:54;;;;;;;9.68;4.60;;;11.40;99.90;;;11.59;100.00;98589.84;4826419;29;20074;-66
2023/11/02 00:48:28;;;;;;;11.32;4.53;;;11.50;99.90;;;11.64;100.00;98621.41;4826454;29;20390;-65
2023/11/02 00:51:20;;;;;;;13.85;3.92;;;11.50;99.90;;;11.59;100.00;98611.00;4826945;29;20061;-65
2023/11/02 00:53:59;;;;;;;8.63;3.85;;;11.50;99.90;;;11.68;100.00;98601.84;4826590;29;20046;-66
2023/11/02 00:56:34;;;;;;;9.70;3.85;;;11.50;99.90;;;11.65;100.00;98594.88;4811414;29;20058;-67
2023/11/02 00:59:05;;;;;;;10.20;4.40;;;11.60;99.90;;;11.74;100.00;98572.44;4819140;29;20137;-66
2023/11/02 01:01:34;;;;;;;14.48;4.72;;;11.60;99.90;;;11.71;100.00;98548.75;4826207;29;20493;-66
2023/11/02 01:04:07;;;;;;;15.02;4.50;;;11.60;99.90;;;11.72;100.00;98550.47;4826024;29;20550;-65
2023/11/02 01:06:37;;;;;;;8.07;4.05;;;11.60;99.90;;;11.73;100.00;98560.13;4810177;29;20065;-65
2023/11/02 01:09:45;;;;;;;13.27;4.07;;;11.60;99.90;;;11.74;100.00;98538.88;4826369;29;20058;-65
2023/11/02 01:12:24;;;;;;;15.07;4.45;;;11.60;99.90;;;11.77;100.00;98517.53;4811256;29;20494;-65
2023/11/02 01:14:52;;;;;;;11.88;4.43;;;11.60;99.90;;;11.79;100.00;98514.81;4804611;29;20050;-66
2023/11/02 01:17:31;;;;;;;13.18;4.72;;;11.60;99.90;;;11.62;100.00;98496.19;4809869;29;20053;-66
2023/11/02 01:20:09;;;;;;;9.85;4.80;;;11.70;99.90;;;11.84;100.00;98498.72;4826206;29;20089;-65
2023/11/02 01:22:54;;;;;;;11.85;4.30;;;11.70;99.90;;;11.86;100.00;98467.72;4814347;29;20058;-65
2023/11/02 01:25:28;;;;;;;10.20;4.13;;;11.70;99.90;;;11.83;100.00;98494.38;4813218;29;20074;-65
2023/11/02 01:28:06;;;;;;;10.35;4.28;;;11.70;99.90;;;11.91;100.00;98449.81;4825596;29;20420;-65
2023/11/02 01:31:14;;;;;;;11.23;4.20;;;11.80;99.90;;;11.88;100.00;98407.59;4812210;29;20054;-66
2023/11/02 01:34:00;;;;;;;9.02;3.88;;;11.70;99.90;;;11.69;100.00;98413.78;4825862;29;20046;-65
2023/11/02 01:36:42;;;;;;;15.57;4.75;;;11.60;99.90;;;11.71;100.00;98409.28;4825881;29;20050;-65
2023/11/02 01:39:52;;;;;;;14.68;4.13;;;11.60;99.90;;;11.81;100.00;98355.88;4825902;29;20496;-65
2023/11/02 01:42:28;;;;;;;12.50;4.43;;;11.60;99.90;;;11.78;100.00;98341.00;4806196;29;20058;-65
2023/11/02 01:45:06;;;;;;;11.50;4.40;;;11.60;99.90;;;11.72;100.00;98320.09;4825564;29;20058;-65
2023/11/02 01:48:01;;;;;;;12.40;4.20;;;11.60;99.90;;;11.76;100.00;98314.59;4814005;29;20145;-64
2023/11/02 01:50:35;;;;;;;13.65;4.53;;;11.60;99.90;;;11.73;100.00;98329.75;4796071;29;20451;-65
2023/11/02 01:53:30;;;;;;;9.88;4.03;;;11.60;99.90;;;11.82;100.00;98283.44;4809246;29;20061;-67
2023/11/02 01:56:21;;;;;;;9.00;4.63;;;11.60;99.90;;;11.88;100.00;98280.47;4808069;29;20112;-66
2023/11/02 01:59:04;;;;;;;9.05;4.10;;;11.70;99.90;;;11.17;100.00;98141.19;4802908;29;20556;-65
2023/11/02 02:01:36;;;;;;;12.25;4.32;;;11.70;99.90;;;11.70;100.00;98227.53;4823960;29;20054;-66
2023/11/02 02:04:16;;;;;;;14.05;3.75;;;11.60;99.90;;;11.73;100.00;98259.13;4825531;29;20054;-65
2023/11/02 02:07:05;;;;;;;8.60;4.13;;;11.60;99.90;;;11.70;100.00;98240.75;4825485;29;20039;-65
2023/11/02 02:09:58;;;;;;;9.90;3.95;;;11.50;99.90;;;11.77;100.00;98234.19;4796984;29;20058;-65
2023/11/02 02:12:44;;;;;;;11.80;3.92;;;11.60;99.90;;;11.87;100.00;98231.06;4825358;29;20472;-65
2023/11/02 02:15:24;;;;;;;8.65;4.10;;;11.70;99.90;;;11.74;100.00;98221.13;4796189;29;20489;-64
2023/11/02 02:17:59;;;;;;;9.75;4.10;;;11.60;99.90;;;11.78;100.00;98203.28;4808852;29;20065;-65
2023/11/02 02:20:32;;;;;;;13.82;5.35;;;11.60;99.90;;;11.78;100.00;98232.41;4825228;29;20087;-66
2023/11/02 02:23:11;;;;;;;12.77;4.10;;;11.70;99.90;;;11.80;100.00;98174.94;4820700;29;20062;-65
2023/11/02 02:25:50;;;;;;;15.27;4.93;;;11.70;99.90;;;11.82;100.00;98148.38;4808639;29;20078;-65
2023/11/02 02:28:41;;;;;;;9.63;4.05;;;11.70;99.90;;;11.77;100.00;98130.94;4825093;29;20455;-65
2023/11/02 02:31:22;;;;;;;;;;;11.60;99.90;;;11.69;100.00;98132.28;4825309;29;20042;-65
2023/11/02 02:34:20;;;;;;;;;;;11.50;99.90;;;11.69;100.00;98133.13;4825069;29;19924;-65
2023/11/02 02:37:04;;;;;;;13.30;4.13;;;11.50;99.90;;;11.62;100.00;98121.13;4813603;29;20277;-65
2023/11/02 02:39:39;;;;;;;14.13;4.53;;;11.50;99.90;;;11.75;100.00;98111.63;4825206;29;20061;-65
2023/11/02 02:42:09;;;;;;;9.90;4.10;;;11.60;99.90;;;11.75;100.00;98108.97;4824672;29;20097;-64
2023/11/02 02:44:42;;;;;;;9.70;4.10;;;11.60;99.90;;;11.61;100.00;98069.09;4824848;29;20108;-65
2023/11/02 02:47:12;;;;;;;13.75;3.97;;;11.60;99.90;;;11.77;100.00;98085.94;4824888;29;20043;-64
2023/11/02 02:49:48;;;;;;;9.13;4.50;;;11.60;99.90;;;11.85;100.00;98074.06;4824540;29;20057;-65
2023/11/02 02:52:22;;;;;;;12.55;4.93;;;11.60;99.90;;;11.88;100.00;98056.22;4824754;29;20126;-65
2023/11/02 02:54:54;;;;;;;9.55;3.55;;;11.70;99.90;;;11.85;100.00;98063.47;4811731;29;20054;-64
2023/11/02 02:57:28;;;;;;;16.52;4.28;;;11.70;99.90;;;11.82;100.00;98047.75;4823682;29;20050;-65
2023/11/02 03:00:01;;;;;;;17.17;3.83;;;11.70;99.90;;;11.84;100.00;98011.44;4824685;29;20058;-64
2023/11/02 03:02:33;;;;;;;13.68;4.45;;;11.70;99.90;;;11.90;100.00;98009.31;4824620;29;20046;-65
2023/11/02 03:05:02;;;;;;;15.52;4.38;;;11.70;99.90;;;11.83;100.00;97970.03;4824635;29;20057;-65
2023/11/02 03:07:33;;;;;;;16.15;4.75;;;11.70;99.90;;;11.81;100.00;97961.31;4824281;29;20130;-65
2023/11/02 03:10:03;;;;;;;18.65;4.93;;;11.60;99.90;;;11.90;100.00;97990.78;4824624;29;20054;-65
2023/11/02 03:12:35;;;;;;;15.15;3.97;;;11.70;99.90;;;11.80;100.00;97944.56;4807946;29;20050;-64
2023/11/02 03:15:08;;;;;;;13.93;4.15;;;11.60;99.90;;;12.00;100.00;97941.63;4824590;29;20062;-65
2023/11/02 03:18:07;;;;;;;17.75;4.70;;;11.80;99.90;;;11.84;100.00;97954.06;4824238;29;20050;-65
2023/11/02 03:20:36;;;;;;;9.80;3.92;;;11.60;99.90;;;11.79;100.00;97945.50;4812974;29;20111;-64
2023/11/02 03:23:19;;;;;;;13.93;4.45;;;11.70;99.90;;;11.84;100.00;97939.94;4824357;29;20062;-63
2023/11/02 03:25:54;;;;;;;11.40;3.90;;;11.70;99.90;;;11.92;100.00;97928.00;4823719;29;20086;-65
2023/11/02 03:28:39;;;;;;;11.60;3.83;;;11.70;99.90;;;11.82;100.00;97897.69;4823954;29;20481;-65
2023/11/02 03:31:26;;;;;;;11.93;4.20;;;11.80;99.90;;;11.92;100.00;97884.75;4823989;29;20062;-64
2023/11/02 03:34:03;;;;;;;15.73;3.80;;;11.80;99.90;;;11.91;100.00;97852.13;4811578;29;20481;-64
2023/11/02 03:36:56;;;;;;;12.07;4.05;;;11.80;99.90;;;11.87;100.00;97818.81;4823587;29;20445;-64
2023/11/02 03:39:41;;;;;;;10.80;4.13;;;11.70;99.90;;;11.86;100.00;97830.38;4809394;29;20077;-64
2023/11/02 03:42:18;;;;;;;10.00;4.32;;;11.70;99.90;;;11.98;100.00;97794.38;4824052;29;20061;-64
2023/11/02 03:44:59;;;;;;;8.73;3.83;;;11.80;99.90;;;12.10;100.00;97836.84;4823374;29;20054;-65
2023/11/02 03:47:41;;;;;;;10.77;4.25;;;11.90;99.90;;;12.08;100.00;97793.72;4823445;29;20046;-65
2023/11/02 03:50:19;;;;;;;7.97;3.63;;;11.90;99.90;;;12.08;100.00;97788.41;4823378;29;20054;-64
2023/11/02 03:53:03;;;;;;;14.15;4.00;;;11.90;99.90;;;12.09;100.00;97813.97;4808886;29;20053;-64
2023/11/02 03:55:51;;;;;;;9.23;4.30;;;11.90;99.90;;;12.16;100.00;97770.25;4823132;29;20493;-64
2023/11/02 03:58:36;;;;;;;13.07;3.90;;;12.00;99.90;;;12.18;99.96;97722.47;4823400;29;20055;-64
2023/11/02 04:01:16;;;;;;;9.75;4.07;;;12.00;99.90;;;12.08;99.12;97706.28;4823645;29;20099;-64
2023/11/02 04:03:50;;;;;;;9.38;3.72;;;12.00;99.90;;;12.04;99.65;97718.03;4823065;29;20129;-65
2023/11/02 04:06:27;;;;;;;8.95;3.53;;;11.90;99.90;;;11.92;98.91;97662.31;4809540;29;20069;-64
2023/11/02 04:09:00;;;;;;;11.88;4.35;;;11.90;99.90;;;12.14;98.33;97667.97;4825060;29;20054;-64
2023/11/02 04:11:35;;;;;;;9.18;3.38;;;11.90;99.90;;;12.16;98.08;97647.53;4826672;29;20461;-66
2023/11/02 04:14:13;;;;;;;7.63;3.35;;;12.00;99.90;;;12.19;97.00;97663.25;4826603;29;20046;-65
2023/11/02 04:16:42;;;;;;;11.05;3.95;;;12.00;99.90;;;12.24;96.39;97643.47;4826544;29;20073;-65
2023/11/02 04:19:10;;;;;;;8.15;4.00;;;12.10;99.90;;;12.29;95.89;97718.22;4826411;29;20136;-65
2023/11/02 04:21:39;;;;;;;8.35;3.47;;;12.10;99.90;;;12.27;95.52;97631.84;4826722;29;20074;-65
2023/11/02 04:24:08;;;;;;;14.82;3.95;;;12.10;99.90;;;12.26;94.84;97672.53;4826665;29;20413;-64
2023/11/02 04:26:39;;;;;;;10.82;3.80;;;12.10;99.90;;;12.32;94.34;97651.81;4826616;29;20070;-65
2023/11/02 04:29:08;;;;;;;12.57;4.00;;;12.20;99.90;;;12.35;93.21;97656.06;4826634;29;20462;-64
2023/11/02 04:31:38;;;;;;;10.40;3.63;;;12.20;99.90;;;12.28;93.60;97647.66;4826595;29;20446;-63
2023/11/02 04:34:07;;;;;;;12.45;3.90;;;12.20;99.90;;;12.37;92.91;97630.28;4826737;29;20058;-65
2023/11/02 04:36:35;;;;;;;10.18;4.38;;;12.20;99.90;;;12.38;92.41;97655.88;4826374;29;20073;-64
2023/11/02 04:39:04;;;;;;;10.35;4.07;;;12.20;99.90;;;12.32;92.46;97627.09;4826192;29;20121;-64
2023/11/02 04:41:32;;;;;;;12.13;3.20;;;12.20;99.90;;;12.37;91.23;97664.75;4826112;29;20046;-64
2023/11/02 04:44:02;;;;;;;10.35;3.95;;;12.20;99.90;;;12.42;91.73;97626.44;4826117;29;20394;-65
2023/11/02 04:46:30;;;;;;;11.10;4.13;;;12.30;99.90;;;12.40;92.82;97616.88;4812430;29;20137;-66
2023/11/02 04:48:59;;;;;;;8.60;3.90;;;12.20;99.90;;;12.40;93.03;97608.91;4825936;29;20115;-65
2023/11/02 04:51:27;;;;;;;5.50;3.25;;;12.30;99.90;;;12.32;92.87;97608.56;4826108;29;20125;-65
2023/11/02 04:53:56;;;;;;;5.57;3.55;;;12.10;99.90;;;12.17;92.17;97540.66;4825754;29;20047;-65
2023/11/02 04:56:25;;;;;;;6.75;3.40;;;12.20;99.90;;;12.37;92.58;97582.59;4826121;29;20398;-66
2023/11/02 04:58:53;;;;;;;5.57;3.70;;;12.20;99.90;;;12.33;91.48;97558.09;4816896;29;20103;-65
2023/11/02 05:01:23;;;;;;;4.50;3.30;;;12.20;99.90;;;12.40;90.51;97545.31;4826021;29;20335;-65
2023/11/02 05:03:55;;;;;;;8.23;3.83;;;12.30;99.90;;;12.41;91.97;97539.91;4809784;29;20443;-66
2023/11/02 05:06:24;;;;;;;10.90;3.78;;;12.20;99.90;;;12.40;91.21;97522.31;4825886;29;20062;-66
2023/11/02 05:08:52;;;;;;;5.82;3.38;;;12.30;99.90;;;12.44;91.02;97489.38;4825890;29;20051;-65
2023/11/02 05:11:21;;;;;;;6.80;3.60;;;12.30;99.90;;;12.42;91.50;97515.13;4826363;29;20062;-66
2023/11/02 05:13:49;;;;;;;8.38;3.60;;;12.30;99.90;;;12.47;91.63;97483.00;4825898;29;20392;-65
2023/11/02 05:16:18;;;;;;;5.03;3.10;;;12.30;99.90;;;12.47;91.98;97459.13;4825784;29;20374;-65
2023/11/02 05:18:48;;;;;;;4.47;3.20;;;12.30;99.90;;;12.44;91.92;97472.59;4825460;29;20134;-65
2023/11/02 05:21:16;;;;;;;8.15;3.47;;;12.30;99.90;;;12.28;92.55;97446.28;4824899;29;20161;-64
2023/11/02 05:23:45;;;;;;;6.22;3.30;;;12.20;99.90;;;12.32;93.74;97461.03;4825336;29;20477;-65
2023/11/02 05:26:13;;;;;;;6.43;3.40;;;12.20;99.90;;;12.35;93.18;97471.41;4823439;29;20115;-65
2023/11/02 05:28:42;;;;;;;8.02;3.28;;;12.20;99.90;;;12.30;94.90;97435.56;4823063;29;20065;-65
2023/11/02 05:31:11;;;;;;;7.30;3.30;;;12.10;99.90;;;12.16;95.90;97447.06;4825506;29;20055;-64
2023/11/02 05:33:39;;;;;;;5.35;3.03;;;12.10;99.90;;;12.15;96.36;97442.75;4825147;29;20133;-65
2023/11/02 05:36:10;;;;;;;6.20;3.65;;;12.00;99.90;;;12.19;96.80;97460.13;4825403;29;20053;-65
2023/11/02 05:38:38;;;;;;;9.93;3.33;;;12.00;99.90;;;12.11;97.53;97483.63;4825342;29;20089;-65
2023/11/02 05:41:07;;;;;;;6.10;3.20;;;12.00;99.90;;;12.17;98.76;97401.09;4825563;29;20119;-64
2023/11/02 05:43:35;;;;;;;6.70;3.15;;;12.00;99.90;;;12.07;99.83;97385.91;4824939;29;20047;-65
2023/11/02 05:46:04;;;;;;;5.28;3.35;;;11.90;99.90;;;11.95;100.00;97395.50;4825294;29;20462;-65
2023/11/02 05:48:32;;;;;;;6.20;3.33;;;11.80;99.90;;;11.83;100.00;97385.72;4825013;29;20050;-65
2023/11/02 05:51:02;;;;;;;7.97;3.80;;;11.70;99.90;;;11.78;100.00;97382.53;4825121;29;20069;-65
2023/11/02 05:53:32;;;;;;;8.38;3.30;;;11.60;99.90;;;11.74;100.00;97328.94;4824857;29;20557;-65
2023/11/02 05:56:00;;;;;;;7.28;3.33;;;11.60;99.90;;;11.61;100.00;97341.22;4819127;29;20054;-64
2023/11/02 05:58:29;;;;;;;5.15;3.30;;;11.50;99.90;;;11.69;100.00;97328.38;4824854;29;20863;-65
2023/11/02 06:00:57;;;;;;;8.35;3.35;;;11.50;99.90;;;11.81;100.00;97331.19;4824716;29;20055;-64
2023/11/02 06:03:26;;;;;;;6.13;3.47;;;11.60;99.90;;;11.62;100.00;97321.78;4824692;29;20062;-64
2023/11/02 06:05:55;;;;;;;6.53;3.30;;;11.50;99.90;;;11.67;100.00;97303.00;4824624;29;20497;-63
2023/11/02 06:08:23;;;;;;;6.95;3.55;;;11.50;99.90;;;11.73;100.00;97300.75;4824612;29;20054;-63
2023/11/02 06:10:53;;;;;;;9.18;3.17;;;11.60;99.90;;;11.74;100.00;97278.66;4794467;29;20054;-62
2023/11/02 06:13:21;;;;;;;6.63;4.05;;;11.60;99.90;;;11.76;100.00;97294.44;4824532;29;20099;-63
2023/11/02 06:15:50;;;;;;;5.97;3.55;;;11.60;99.90;;;11.77;100.00;97277.56;4824260;29;20053;-62
2023/11/02 06:18:18;;;;;;;4.15;3.20;;;11.60;99.90;;;11.89;100.00;97279.41;4809388;29;20177;-63
2023/11/02 06:20:47;;;;;;;4.78;3.30;;;11.70;99.90;;;11.88;100.00;97253.91;4824399;29;20381;-63
2023/11/02 06:23:15;;;;;;;14.80;4.03;;;11.70;99.90;;;11.93;100.00;97277.41;4824254;29;20078;-62
2023/11/02 06:25:44;;;;;;;5.32;3.58;;;11.80;99.90;;;11.94;100.00;97284.41;4824316;29;20050;-64
2023/11/02 06:28:14;;;;;;;10.18;3.63;;;11.80;99.90;;;11.88;100.00;97210.69;4821280;29;20468;-64
2023/11/02 06:30:43;;;;;;;5.47;3.25;;;11.70;99.90;;;11.87;100.00;97240.75;4807688;29;20078;-64
2023/11/02 06:33:32;;;;;;;5.47;3.65;;;11.70;99.90;;;11.07;100.00;97085.63;4824386;29;20116;-62
2023/11/02 06:36:03;;;;;;;7.68;4.05;;;11.70;99.90;;;11.72;100.00;97227.63;4809355;29;20076;-63
2023/11/02 06:38:32;;;;;;;6.50;4.07;;;11.60;99.90;;;11.74;100.00;97204.53;4824102;29;20082;-63
2023/11/02 06:41:00;;;;;;;7.65;3.95;;;11.60;99.90;;;11.78;100.00;97216.63;4823989;29;20403;-63
2023/11/02 06:43:30;;;;;;;6.43;3.17;;;11.60;99.90;;;11.75;100.00;97174.44;4824139;29;20385;-63
2023/11/02 06:45:58;;;;;;;4.73;3.20;;;11.60;99.90;;;11.88;100.00;97189.50;4823930;29;20061;-63
2023/11/02 06:48:27;;;;;;;5.88;3.22;;;11.70;99.90;;;11.88;100.00;97189.50;4824388;29;20705;-63
2023/11/02 06:50:55;;;;;;;7.65;3.55;;;11.70;99.90;;;11.88;100.00;97168.31;4808614;29;20058;-63
2023/11/02 06:53:23;;;;;;;8.60;3.60;;;11.70;99.90;;;11.89;100.00;97181.44;4824158;29;20119;-62
2023/11/02 06:55:52;;;;;;;4.88;3.33;;;11.70;99.90;;;11.93;100.00;97150.31;4807484;29;20055;-62
2023/11/02 06:58:20;;;;;;;5.70;3.35;;;11.80;99.90;;;12.00;100.00;97162.19;4823824;29;20489;-63
2023/11/02 07:00:50;;;;;;;4.90;3.50;;;11.90;99.90;;;12.09;100.00;97185.38;4820920;29;20141;-64
2023/11/02 07:03:19;;;;;;;5.73;3.60;;;11.90;99.90;;;11.67;100.00;97070.91;4823869;29;20438;-63
2023/11/02 07:05:48;;;;;;;3.80;3.38;;;11.90;99.90;;;12.09;100.00;97165.03;4823793;29;20295;-63
2023/11/02 07:08:17;;;;;;;4.00;3.17;;;11.90;99.90;;;12.04;100.00;97127.41;4823756;29;20054;-63
2023/11/02 07:10:45;;;;;;;8.52;3.20;;;12.00;99.90;;;12.17;100.00;97169.78;4823932;29;20083;-64
2023/11/02 07:13:15;;;;;;;5.68;3.50;;;12.00;99.90;;;12.24;100.00;97140.13;4823720;29;20151;-63
2023/11/02 07:15:44;;;;;;;6.13;3.20;;;12.10;99.90;;;12.19;100.00;97147.56;4823569;29;20082;-63
2023/11/02 07:18:14;;;;;;;6.00;3.60;;;12.00;99.90;;;12.25;100.00;97127.72;4807399;29;20098;-63
2023/11/02 07:20:42;;;;;;;5.80;3.53;;;12.10;99.90;;;12.19;100.00;97110.47;4823984;29;20093;-63
2023/11/02 07:23:11;;;;;;;5.90;3.20;;;12.00;99.90;;;12.27;100.00;97094.03;4823784;29;20054;-64
2023/11/02 07:25:41;;;;;;;8.53;3.73;;;12.10;99.90;;;12.28;100.00;97123.06;4823806;29;20130;-63
2023/11/02 07:28:09;;;;;;;5.60;3.70;;;12.10;99.90;;;12.32;100.00;97086.59;4823320;29;20137;-64
2023/11/02 07:30:38;;;;;;;6.65;4.13;;;12.10;99.90;;;12.06;100.00;97087.63;4824011;29;20549;-63
2023/11/02 07:33:07;;;;;;;5.90;3.83;;;12.00;99.90;;;12.22;100.00;97078.44;4823531;29;20103;-64
2023/11/02 07:35:37;;;;;;;9.40;3.55;;;12.00;99.90;;;12.17;100.00;97090.34;4823208;29;20115;-63
2023/11/02 07:38:05;;;;;;;8.03;3.87;;;12.00;99.90;;;12.23;100.00;97079.31;4823425;29;20050;-63
2023/11/02 07:40:33;;;;;;;5.93;3.95;;;12.10;99.90;;;12.14;100.00;97086.09;4823239;29;20122;-63
2023/11/02 07:43:02;;;;;;;5.45;3.70;;;12.00;99.90;;;12.07;100.00;97045.13;4806509;29;20381;-63
2023/11/02 07:45:30;;;;;;;7.13;3.80;;;12.00;99.90;;;12.15;100.00;97076.34;4823216;29;20042;-63
2023/11/02 07:48:00;;;;;;;7.72;3.80;;;12.00;99.90;;;12.18;100.00;97076.13;4806850;29;20058;-64
2023/11/02 07:50:29;;;;;;;11.50;3.92;;;12.00;99.90;;;12.20;100.00;97045.94;4823666;29;20046;-64
2023/11/02 07:52:59;;;;;;;5.70;3.58;;;12.00;99.90;;;12.35;100.00;97065.19;4823115;29;20046;-64
2023/11/02 07:55:28;;;;;;;4.90;3.67;;;12.20;99.90;;;12.41;100.00;97059.41;4823468;29;20082;-65
2023/11/02 07:57:57;;;;;;;8.38;3.88;;;12.30;99.90;;;12.48;100.00;97047.44;4808478;29;20059;-63
2023/11/02 08:00:26;;;;;;;8.38;4.20;;;12.30;99.90;;;12.58;100.00;97045.78;4823273;29;20454;-64
2023/11/02 08:02:54;;;;;;;10.15;3.70;;;12.40;99.90;;;12.64;100.00;97026.75;4806700;29;20062;-65
2023/11/02 08:05:23;;;;;;;11.32;4.55;;;12.50;99.90;;;12.78;100.00;97036.34;4806781;29;20438;-64
2023/11/02 08:07:51;;;;;;;11.48;4.40;;;12.60;99.90;;;12.81;100.00;97068.81;4822943;29;20050;-63
2023/11/02 08:10:21;;;;;;;9.50;3.42;;;12.70;99.90;;;12.96;100.00;97014.59;4823007;29;20065;-64
2023/11/02 08:12:49;;;;;;;8.67;4.17;;;12.80;99.90;;;12.94;100.00;97031.59;4823588;29;20359;-63
2023/11/02 08:15:18;;;;;;;12.60;4.07;;;12.80;99.90;;;13.01;100.00;97004.47;4822775;29;20311;-64
2023/11/02 08:17:46;;;;;;;9.40;4.22;;;12.90;99.90;;;13.00;100.00;97002.81;4822780;29;20130;-63
2023/11/02 08:20:15;;;;;;;12.43;4.65;;;12.90;99.90;;;13.09;99.42;97007.44;4822887;29;20054;-65
2023/11/02 08:22:43;;;;;;;14.68;4.75;;;13.00;99.90;;;13.20;99.44;96985.41;4822748;29;20067;-64
2023/11/02 08:25:12;;;;;;;10.65;3.75;;;13.00;99.90;;;13.23;96.03;96985.16;4823328;29;20090;-64
2023/11/02 08:27:43;;;;;;;15.48;4.40;;;13.10;99.90;;;13.31;95.83;96988.91;4803414;29;20077;-66
2023/11/02 08:30:12;;;;;;;11.68;4.07;;;13.20;99.90;;;13.43;91.84;97029.59;4805243;29;20138;-66
2023/11/02 08:32:41;;;;;;;11.13;4.05;;;13.30;99.90;;;13.50;91.30;96990.97;4804324;29;20058;-63
2023/11/02 08:35:10;;;;;;;8.70;3.55;;;13.30;99.90;;;13.53;88.88;96980.94;4804485;29;20118;-64
2023/11/02 08:37:38;;;;;;;11.98;4.35;;;13.40;99.90;;;13.58;91.10;96969.97;4803406;29;20054;-64
2023/11/02 08:40:08;;;;;;;13.40;4.55;;;13.40;99.90;;;13.34;92.96;96954.16;4804428;29;20054;-63
2023/11/02 08:42:37;;;;;;;10.35;4.43;;;13.40;99.90;;;13.51;93.02;96966.94;4805069;29;20119;-64
2023/11/02 08:45:08;;;;;;;11.00;3.83;;;13.40;99.90;;;13.38;92.58;96973.34;4803473;29;20051;-65
2023/11/02 08:47:37;;;;;;;13.10;4.50;;;13.30;99.90;;;13.32;93.92;96912.78;4804846;29;20057;-67
2023/11/02 08:50:08;;;;;;;16.48;4.47;;;13.20;99.90;;;13.31;91.97;96983.59;4804611;29;20126;-64
2023/11/02 08:52:36;;;;;;;13.98;5.70;;;13.20;99.90;;;13.27;93.33;96946.81;4803506;29;20070;-66
2023/11/02 08:55:05;;;;;;;15.15;4.85;;;13.10;99.90;;;13.27;92.36;96931.75;4805486;29;20043;-66
2023/11/02 08:57:35;;;;;;;14.93;5.03;;;13.10;99.90;;;13.25;94.02;96946.94;4806605;29;20154;-64
2023/11/02 09:00:05;;;;;;;14.90;4.88;;;13.10;99.90;;;13.02;95.24;96929.28;4807784;29;20107;-63
2023/11/02 09:02:35;;;;;;;13.48;4.07;;;13.00;99.90;;;13.19;94.46;96970.44;4807838;29;20043;-63
2023/11/02 09:05:04;;;;;;;15.35;4.85;;;13.00;99.90;;;13.06;94.32;96884.81;4807675;29;20055;-63
2023/11/02 09:07:32;;;;;;;12.98;4.45;;;13.00;99.90;;;13.11;94.97;96965.72;4806558;29;20065;-63
2023/11/02 09:10:01;;;;;;;12.85;3.95;;;13.00;99.90;;;13.06;96.45;96927.25;4807591;29;20050;-63
2023/11/02 09:12:29;;;;;;;16.10;5.05;;;12.90;99.90;;;12.98;96.25;96935.78;4807555;29;20489;-63
2023/11/02 09:14:58;;;;;;;15.05;4.45;;;12.90;99.90;;;12.98;97.24;96897.78;4807514;29;20067;-62
2023/11/02 09:17:26;;;;;;;14.82;4.70;;;12.80;99.90;;;13.06;97.95;96951.97;4807405;29;20055;-61
2023/11/02 09:19:56;;;;;;;14.98;4.97;;;12.90;99.90;;;13.06;98.41;96904.25;4807486;29;20399;-64
2023/11/02 09:22:25;;;;;;;10.90;4.90;;;12.80;99.90;;;12.99;98.46;96912.75;4807777;29;20142;-63
2023/11/02 09:24:57;;;;;;;;;;;12.90;99.90;;;13.11;99.08;96910.00;4807840;29;20055;-62
2023/11/02 09:27:26;;;;;;;10.13;4.00;;;12.90;99.90;;;13.07;98.89;96940.41;4819173;29;20400;-63
2023/11/02 09:29:56;;;;;;;12.75;4.57;;;12.90;99.90;;;13.00;98.66;96903.81;4825252;29;20046;-61
2023/11/02 09:32:24;;;;;;;12.73;5.03;;;12.90;99.90;;;12.98;99.15;96874.78;4826114;29;20080;-62
2023/11/02 09:34:53;;;;;;;17.85;4.68;;;12.80;99.90;;;12.99;98.89;96888.88;4825553;29;20121;-62
2023/11/02 09:37:23;;;;;;;13.48;4.80;;;12.80;99.90;;;12.23;98.53;96788.75;4825339;29;20114;-62
2023/11/02 09:39:51;;;;;;;12.43;4.35;;;12.80;99.90;;;12.90;96.71;96926.72;4812023;29;20057;-61
2023/11/02 09:42:19;;;;;;;17.40;4.60;;;12.80;99.90;;;12.95;97.48;96864.38;4825120;29;20102;-62
2023/11/02 09:44:48;;;;;;;15.75;4.88;;;12.80;99.90;;;13.02;97.57;96900.09;4824998;29;20054;-62
2023/11/02 09:47:16;;;;;;;13.95;4.32;;;12.90;99.90;;;13.01;97.26;96902.84;4824948;29;20090;-62
2023/11/02 09:49:45;;;;;;;10.57;4.10;;;12.90;99.90;;;13.07;98.02;96913.00;4825020;29;20446;-62
2023/11/02 09:52:15;;;;;;;14.73;4.35;;;12.90;99.90;;;13.03;98.67;96907.09;4825085;29;20051;-62
2023/11/02 09:54:46;;;;;;;13.70;4.30;;;12.80;99.90;;;13.00;98.52;96936.50;4825183;29;20442;-62
2023/11/02 09:57:16;;;;;;;14.70;4.63;;;12.80;99.90;;;12.99;97.87;96920.72;4824860;29;20046;-61
2023/11/02 09:59:46;;;;;;;16.40;5.13;;;12.80;99.90;;;13.03;97.71;96877.03;4824778;29;20089;-62
2023/11/02 10:02:14;;;;;;;13.05;4.53;;;12.90;99.90;;;13.11;95.70;96862.25;4825243;29;20050;-62
2023/11/02 10:04:43;;;;;;;13.90;4.10;;;12.90;99.90;;;13.15;92.54;96863.72;4810372;29;20509;-62
2023/11/02 10:07:13;;;;;;;10.30;3.85;;;13.00;99.90;;;13.31;92.74;96869.50;4824488;29;20133;-61
2023/11/02 10:09:42;;;;;;;13.90;4.55;;;13.10;99.90;;;13.37;90.42;96873.47;4814080;29;20488;-61
2023/11/02 10:12:13;;;;;;;10.63;4.25;;;13.20;99.90;;;13.39;88.63;96864.41;4824654;29;20054;-62
2023/11/02 10:14:42;;;;;;;14.05;4.47;;;13.20;99.90;;;13.41;90.96;96812.06;4824654;29;20051;-62
2023/11/02 10:17:11;;;;;;;15.07;4.68;;;13.20;99.90;;;13.15;92.88;96916.78;4824671;29;20090;-62
2023/11/02 10:19:40;;;;;;;8.82;3.90;;;13.10;99.90;;;13.06;94.59;96875.06;4824451;29;20058;-63
2023/11/02 10:22:07;;;;;;;11.18;3.83;;;12.90;99.90;;;12.98;94.38;96835.00;4807843;29;20058;-62
2023/11/02 10:24:37;;;;;;;14.55;4.72;;;12.80;99.90;;;12.18;95.69;96734.44;4824444;29;20058;-62
2023/11/02 10:27:06;;;;;;;11.90;4.27;;;12.80;99.90;;;12.98;95.55;96876.56;4824302;29;20062;-61
2023/11/02 10:29:36;;;;;;;15.25;4.30;;;12.80;99.90;;;12.96;93.66;96902.38;4808758;29;20146;-60
2023/11/02 10:32:06;;;;;;;12.38;4.15;;;12.80;99.90;;;12.99;93.93;96900.31;4818243;29;20145;-60
2023/11/02 10:34:35;;;;;;;12.55;4.40;;;12.80;99.90;;;13.01;93.28;96878.97;4824091;29;20073;-59
2023/11/02 10:37:08;;;;;;;13.32;4.32;;;12.90;99.90;;;13.04;94.00;96887.59;4824295;29;20125;-61